الصفحة الرئيسية
METAR-TAF:

METAR-TAF

مطار :

Barrancabermeja, كولومبيا

دائرة عرض: 07-01N, خط طول: 073-48W, ارتفاع: 126 متر

مراقبة الطقس الحالي

تاريخ ووقت الإصدار 47 دقيقة قبل الساعة 15:00UTC
ريح 2 عقدةمن اتجاهات متغيرة
درجة الحرارة 31°درجة مئوية
الرطوبة 66%
ضغط 1007 hPa
الرؤية 10 كم أو أكثر
غيوم متفرقة على ارتفاع 1500 قدم

METAR: SKEJ 111500Z VRB02KT 9999 SCT015 31/24 Q1007

زمن: 10:47 (15:47 UTC)


TAF: مفقودة

أرصاد الطقس والتوقعات من أكثر من 4000 مطار (تقارير الطقس للمطار METAR والتنبؤ بالطقس بالمطارTAF).

المحطات المتاحة هي النقط الصفراء والحمراء على الخريطة.

حرك المؤشر فوق النقطة لمعرفة اسم المحطة.

ثم انقر لمعرفة أرصاد وتوقعات الطقس.

لتغيير الخارطة: اضغط على الأزرار الخضراء مع رمز الصليب الأسود للتكبير. على الزر الأخضر مع شرطة للتصغير، أو على الأسهم الخضراء للخرائط المجاورة.


METAR-TAF: